sensor_id;sensor_type;location;lat;lon;timestamp;pressure;altitude;pressure_sealevel;temperature;humidity
68226;BME280;55045;49.410;11.030;2024-03-02T00:01:41;97020.94;;;6.53;100.00
68226;BME280;55045;49.410;11.030;2024-03-02T00:04:46;97023.97;;;6.61;100.00
68226;BME280;55045;49.410;11.030;2024-03-02T00:07:56;97018.28;;;6.72;100.00
68226;BME280;55045;49.410;11.030;2024-03-02T00:11:01;97019.28;;;6.70;100.00
68226;BME280;55045;49.410;11.030;2024-03-02T00:14:05;97020.66;;;6.59;100.00
68226;BME280;55045;49.410;11.030;2024-03-02T00:17:18;97020.81;;;6.56;100.00
68226;BME280;55045;49.410;11.030;2024-03-02T00:20:26;97023.22;;;6.42;100.00
68226;BME280;55045;49.410;11.030;2024-03-02T00:23:33;97027.00;;;6.52;100.00
68226;BME280;55045;49.410;11.030;2024-03-02T00:26:38;97019.91;;;6.57;100.00
68226;BME280;55045;49.410;11.030;2024-03-02T00:29:42;97011.19;;;6.60;100.00
68226;BME280;55045;49.410;11.030;2024-03-02T00:32:46;97019.38;;;6.68;100.00
68226;BME280;55045;49.410;11.030;2024-03-02T00:35:50;97016.69;;;6.52;100.00
68226;BME280;55045;49.410;11.030;2024-03-02T00:38:56;97022.94;;;6.48;100.00
68226;BME280;55045;49.410;11.030;2024-03-02T00:42:00;97020.88;;;6.38;100.00
68226;BME280;55045;49.410;11.030;2024-03-02T00:45:07;97021.88;;;6.35;100.00
68226;BME280;55045;49.410;11.030;2024-03-02T00:48:14;97025.50;;;6.48;100.00
68226;BME280;55045;49.410;11.030;2024-03-02T00:51:19;97027.31;;;6.46;100.00
68226;BME280;55045;49.410;11.030;2024-03-02T00:54:25;97019.53;;;6.48;100.00
68226;BME280;55045;49.410;11.030;2024-03-02T00:57:34;97020.56;;;6.26;100.00
68226;BME280;55045;49.410;11.030;2024-03-02T01:00:38;97028.44;;;6.23;100.00
68226;BME280;55045;49.410;11.030;2024-03-02T01:03:41;97033.72;;;6.20;100.00
68226;BME280;55045;49.410;11.030;2024-03-02T01:06:45;97027.91;;;6.17;100.00
68226;BME280;55045;49.410;11.030;2024-03-02T01:09:51;97038.19;;;6.17;100.00
68226;BME280;55045;49.410;11.030;2024-03-02T01:12:55;97033.63;;;6.04;100.00
68226;BME280;55045;49.410;11.030;2024-03-02T01:15:59;97037.94;;;6.04;100.00
68226;BME280;55045;49.410;11.030;2024-03-02T01:19:04;97036.34;;;6.01;100.00
68226;BME280;55045;49.410;11.030;2024-03-02T01:22:09;97030.50;;;5.98;100.00
68226;BME280;55045;49.410;11.030;2024-03-02T01:25:14;97030.59;;;5.96;100.00
68226;BME280;55045;49.410;11.030;2024-03-02T01:28:19;97029.41;;;6.03;100.00
68226;BME280;55045;49.410;11.030;2024-03-02T01:31:24;97036.09;;;6.25;100.00
68226;BME280;55045;49.410;11.030;2024-03-02T01:34:28;97017.53;;;6.18;100.00
68226;BME280;55045;49.410;11.030;2024-03-02T01:37:31;97029.56;;;6.18;100.00
68226;BME280;55045;49.410;11.030;2024-03-02T01:40:37;97031.84;;;6.24;100.00
68226;BME280;55045;49.410;11.030;2024-03-02T01:43:42;97030.63;;;6.14;100.00
68226;BME280;55045;49.410;11.030;2024-03-02T01:46:45;97033.13;;;6.32;100.00
68226;BME280;55045;49.410;11.030;2024-03-02T01:49:50;97036.81;;;6.10;100.00
68226;BME280;55045;49.410;11.030;2024-03-02T01:52:55;97038.47;;;6.11;100.00
68226;BME280;55045;49.410;11.030;2024-03-02T01:56:01;97039.44;;;6.27;100.00
68226;BME280;55045;49.410;11.030;2024-03-02T01:59:05;97031.81;;;6.06;100.00
68226;BME280;55045;49.410;11.030;2024-03-02T02:02:10;97040.56;;;6.02;100.00
68226;BME280;55045;49.410;11.030;2024-03-02T02:05:14;97029.59;;;6.35;100.00
68226;BME280;55045;49.410;11.030;2024-03-02T02:08:18;97035.19;;;6.26;100.00
68226;BME280;55045;49.410;11.030;2024-03-02T02:11:23;97025.81;;;6.25;100.00
68226;BME280;55045;49.410;11.030;2024-03-02T02:14:27;97028.16;;;6.47;100.00
68226;BME280;55045;49.410;11.030;2024-03-02T02:17:32;97022.53;;;6.39;100.00
68226;BME280;55045;49.410;11.030;2024-03-02T02:20:36;97032.47;;;6.29;100.00
68226;BME280;55045;49.410;11.030;2024-03-02T02:23:42;97025.84;;;6.06;100.00
68226;BME280;55045;49.410;11.030;2024-03-02T02:26:49;97022.19;;;5.93;100.00
68226;BME280;55045;49.410;11.030;2024-03-02T02:29:52;97028.88;;;6.31;100.00
68226;BME280;55045;49.410;11.030;2024-03-02T02:32:58;97029.66;;;6.16;100.00
68226;BME280;55045;49.410;11.030;2024-03-02T02:36:02;97031.84;;;6.41;100.00
68226;BME280;55045;49.410;11.030;2024-03-02T02:39:10;97041.88;;;6.47;100.00
68226;BME280;55045;49.410;11.030;2024-03-02T02:42:15;97039.22;;;6.13;100.00
68226;BME280;55045;49.410;11.030;2024-03-02T02:45:19;97041.78;;;5.95;100.00
68226;BME280;55045;49.410;11.030;2024-03-02T02:48:23;97042.50;;;6.16;100.00
68226;BME280;55045;49.410;11.030;2024-03-02T02:51:27;97039.22;;;5.95;100.00
68226;BME280;55045;49.410;11.030;2024-03-02T02:54:32;97037.56;;;5.94;100.00
68226;BME280;55045;49.410;11.030;2024-03-02T02:57:37;97032.66;;;5.88;100.00
68226;BME280;55045;49.410;11.030;2024-03-02T03:00:41;97027.75;;;6.20;100.00
68226;BME280;55045;49.410;11.030;2024-03-02T03:03:46;97033.22;;;6.14;100.00
68226;BME280;55045;49.410;11.030;2024-03-02T03:06:51;97025.13;;;6.02;100.00
68226;BME280;55045;49.410;11.030;2024-03-02T03:09:57;97030.22;;;6.04;100.00
68226;BME280;55045;49.410;11.030;2024-03-02T03:13:01;97033.63;;;6.04;100.00
68226;BME280;55045;49.410;11.030;2024-03-02T03:16:06;97039.03;;;6.17;100.00
68226;BME280;55045;49.410;11.030;2024-03-02T03:19:09;97031.41;;;6.50;100.00
68226;BME280;55045;49.410;11.030;2024-03-02T03:22:13;97033.34;;;6.11;100.00
68226;BME280;55045;49.410;11.030;2024-03-02T03:25:18;97046.50;;;6.04;100.00
68226;BME280;55045;49.410;11.030;2024-03-02T03:28:22;97037.25;;;6.00;100.00
68226;BME280;55045;49.410;11.030;2024-03-02T03:31:26;97044.47;;;6.11;100.00
68226;BME280;55045;49.410;11.030;2024-03-02T03:34:32;97038.63;;;6.07;100.00
68226;BME280;55045;49.410;11.030;2024-03-02T03:37:36;97026.34;;;5.95;100.00
68226;BME280;55045;49.410;11.030;2024-03-02T03:40:42;97032.53;;;6.27;100.00
68226;BME280;55045;49.410;11.030;2024-03-02T03:43:46;97039.53;;;6.06;100.00
68226;BME280;55045;49.410;11.030;2024-03-02T03:46:50;97041.78;;;5.95;100.00
68226;BME280;55045;49.410;11.030;2024-03-02T03:49:54;97044.84;;;6.03;100.00
68226;BME280;55045;49.410;11.030;2024-03-02T03:52:58;97043.44;;;6.15;100.00
68226;BME280;55045;49.410;11.030;2024-03-02T03:56:04;97026.56;;;6.27;100.00
68226;BME280;55045;49.410;11.030;2024-03-02T03:59:08;97044.38;;;6.13;100.00
68226;BME280;55045;49.410;11.030;2024-03-02T04:02:12;97041.69;;;6.16;100.00
68226;BME280;55045;49.410;11.030;2024-03-02T04:05:16;97035.31;;;6.05;100.00
68226;BME280;55045;49.410;11.030;2024-03-02T04:08:20;97033.31;;;5.93;100.00
68226;BME280;55045;49.410;11.030;2024-03-02T04:11:25;97037.63;;;5.93;100.00
68226;BME280;55045;49.410;11.030;2024-03-02T04:14:28;97028.91;;;5.95;100.00
68226;BME280;55045;49.410;11.030;2024-03-02T04:17:33;97036.00;;;5.90;100.00
68226;BME280;55045;49.410;11.030;2024-03-02T04:20:38;97037.13;;;5.85;100.00
68226;BME280;55045;49.410;11.030;2024-03-02T04:23:42;97038.06;;;5.82;100.00
68226;BME280;55045;49.410;11.030;2024-03-02T04:26:47;97040.53;;;5.85;100.00
68226;BME280;55045;49.410;11.030;2024-03-02T04:29:50;97043.66;;;5.73;100.00
68226;BME280;55045;49.410;11.030;2024-03-02T04:34:29;97048.88;;;5.53;100.00
68226;BME280;55045;49.410;11.030;2024-03-02T04:37:34;97049.50;;;5.58;100.00
68226;BME280;55045;49.410;11.030;2024-03-02T04:40:38;97046.22;;;5.54;100.00
68226;BME280;55045;49.410;11.030;2024-03-02T04:43:41;97057.63;;;5.48;100.00
68226;BME280;55045;49.410;11.030;2024-03-02T04:46:45;97049.06;;;5.48;100.00
68226;BME280;55045;49.410;11.030;2024-03-02T04:49:51;97058.78;;;5.41;100.00
68226;BME280;55045;49.410;11.030;2024-03-02T04:52:55;97054.75;;;5.36;100.00
68226;BME280;55045;49.410;11.030;2024-03-02T04:55:59;97057.41;;;5.34;100.00
68226;BME280;55045;49.410;11.030;2024-03-02T04:59:29;97056.50;;;5.35;100.00
68226;BME280;55045;49.410;11.030;2024-03-02T05:02:34;97046.94;;;5.18;100.00
68226;BME280;55045;49.410;11.030;2024-03-02T05:05:40;97049.81;;;5.12;100.00
68226;BME280;55045;49.410;11.030;2024-03-02T05:08:44;97008.91;;;4.87;100.00
68226;BME280;55045;49.410;11.030;2024-03-02T05:11:49;97061.59;;;5.56;100.00
68226;BME280;55045;49.410;11.030;2024-03-02T05:15:08;97063.09;;;5.22;100.00
68226;BME280;55045;49.410;11.030;2024-03-02T05:18:13;97063.09;;;5.22;100.00
68226;BME280;55045;49.410;11.030;2024-03-02T05:21:18;97061.81;;;5.12;100.00
68226;BME280;55045;49.410;11.030;2024-03-02T05:24:22;97065.41;;;5.08;100.00
68226;BME280;55045;49.410;11.030;2024-03-02T05:27:27;97061.00;;;5.11;100.00
68226;BME280;55045;49.410;11.030;2024-03-02T05:30:31;97069.63;;;5.29;100.00
68226;BME280;55045;49.410;11.030;2024-03-02T05:33:37;97062.13;;;5.25;100.00
68226;BME280;55045;49.410;11.030;2024-03-02T05:36:43;97063.09;;;5.22;100.00
68226;BME280;55045;49.410;11.030;2024-03-02T05:39:47;97066.97;;;5.12;100.00
68226;BME280;55045;49.410;11.030;2024-03-02T05:42:52;97064.50;;;5.09;100.00
68226;BME280;55045;49.410;11.030;2024-03-02T05:45:56;97080.81;;;5.08;100.00
68226;BME280;55045;49.410;11.030;2024-03-02T05:49:00;97075.44;;;5.14;100.00
68226;BME280;55045;49.410;11.030;2024-03-02T05:52:06;97075.63;;;5.09;100.00
68226;BME280;55045;49.410;11.030;2024-03-02T05:55:10;97080.97;;;5.05;100.00
68226;BME280;55045;49.410;11.030;2024-03-02T05:58:14;97081.31;;;5.36;100.00
68226;BME280;55045;49.410;11.030;2024-03-02T06:01:31;97073.63;;;5.16;100.00
68226;BME280;55045;49.410;11.030;2024-03-02T06:04:34;97078.31;;;5.06;100.00
68226;BME280;55045;49.410;11.030;2024-03-02T06:07:39;97058.09;;;4.99;100.00
68226;BME280;55045;49.410;11.030;2024-03-02T06:10:44;97082.50;;;5.09;100.00
68226;BME280;55045;49.410;11.030;2024-03-02T06:13:48;97077.97;;;5.34;100.00
68226;BME280;55045;49.410;11.030;2024-03-02T06:16:53;97078.06;;;5.12;100.00
68226;BME280;55045;49.410;11.030;2024-03-02T06:19:57;97073.00;;;5.11;100.00
68226;BME280;55045;49.410;11.030;2024-03-02T06:23:02;97067.81;;;5.31;100.00
68226;BME280;55045;49.410;11.030;2024-03-02T06:26:06;97080.53;;;4.95;100.00
68226;BME280;55045;49.410;11.030;2024-03-02T06:29:11;97076.88;;;4.80;100.00
68226;BME280;55045;49.410;11.030;2024-03-02T06:32:16;97079.78;;;5.32;100.00
68226;BME280;55045;49.410;11.030;2024-03-02T06:35:19;97083.03;;;4.76;100.00
68226;BME280;55045;49.410;11.030;2024-03-02T06:38:24;97075.69;;;4.87;100.00
68226;BME280;55045;49.410;11.030;2024-03-02T06:41:28;97078.63;;;4.58;100.00
68226;BME280;55045;49.410;11.030;2024-03-02T06:44:32;97082.03;;;4.58;100.00
68226;BME280;55045;49.410;11.030;2024-03-02T06:47:36;97080.97;;;5.05;100.00
68226;BME280;55045;49.410;11.030;2024-03-02T06:50:40;97076.06;;;4.99;100.00
68226;BME280;55045;49.410;11.030;2024-03-02T06:53:45;97074.34;;;5.38;100.00
68226;BME280;55045;49.410;11.030;2024-03-02T06:56:49;97073.81;;;5.32;100.00
68226;BME280;55045;49.410;11.030;2024-03-02T06:59:53;97068.50;;;5.16;100.00
68226;BME280;55045;49.410;11.030;2024-03-02T07:03:01;97073.22;;;5.25;100.00
68226;BME280;55045;49.410;11.030;2024-03-02T07:06:04;97073.19;;;5.45;100.00
68226;BME280;55045;49.410;11.030;2024-03-02T07:09:09;97081.31;;;5.36;100.00
68226;BME280;55045;49.410;11.030;2024-03-02T07:12:14;97078.31;;;5.27;100.00
68226;BME280;55045;49.410;11.030;2024-03-02T07:15:18;97081.31;;;5.36;100.00
68226;BME280;55045;49.410;11.030;2024-03-02T07:18:40;97086.75;;;5.49;100.00
68226;BME280;55045;49.410;11.030;2024-03-02T07:21:46;97092.03;;;5.65;100.00
68226;BME280;55045;49.410;11.030;2024-03-02T07:24:51;97093.91;;;5.80;100.00
68226;BME280;55045;49.410;11.030;2024-03-02T07:27:55;97093.50;;;5.89;100.00
68226;BME280;55045;49.410;11.030;2024-03-02T07:30:59;97090.13;;;6.07;100.00
68226;BME280;55045;49.410;11.030;2024-03-02T07:34:03;97094.25;;;6.29;100.00
68226;BME280;55045;49.410;11.030;2024-03-02T07:37:07;97098.38;;;6.50;100.00
68226;BME280;55045;49.410;11.030;2024-03-02T07:40:13;97103.97;;;6.41;100.00
68226;BME280;55045;49.410;11.030;2024-03-02T07:43:17;97095.19;;;6.45;100.00
68226;BME280;55045;49.410;11.030;2024-03-02T07:46:22;97088.63;;;6.74;100.00
68226;BME280;55045;49.410;11.030;2024-03-02T07:49:27;97095.06;;;6.83;100.00
68226;BME280;55045;49.410;11.030;2024-03-02T07:52:31;97089.31;;;6.95;100.00
68226;BME280;55045;49.410;11.030;2024-03-02T07:55:37;97091.28;;;6.90;100.00
68226;BME280;55045;49.410;11.030;2024-03-02T07:58:41;97096.28;;;6.93;100.00
68226;BME280;55045;49.410;11.030;2024-03-02T08:01:45;97096.44;;;7.07;100.00
68226;BME280;55045;49.410;11.030;2024-03-02T08:04:50;97095.97;;;6.99;100.00
68226;BME280;55045;49.410;11.030;2024-03-02T08:07:54;97092.47;;;7.17;100.00
68226;BME280;55045;49.410;11.030;2024-03-02T08:11:00;97091.66;;;7.17;100.00
68226;BME280;55045;49.410;11.030;2024-03-02T08:14:05;97087.47;;;7.14;100.00
68226;BME280;55045;49.410;11.030;2024-03-02T08:17:10;97094.44;;;7.30;100.00
68226;BME280;55045;49.410;11.030;2024-03-02T08:20:14;97093.06;;;7.22;100.00
68226;BME280;55045;49.410;11.030;2024-03-02T08:23:18;97091.84;;;7.30;100.00
68226;BME280;55045;49.410;11.030;2024-03-02T08:26:25;97093.44;;;7.32;100.00
68226;BME280;55045;49.410;11.030;2024-03-02T08:29:31;97084.28;;;7.27;100.00
68226;BME280;55045;49.410;11.030;2024-03-02T08:32:35;97084.41;;;7.23;100.00
68226;BME280;55045;49.410;11.030;2024-03-02T08:35:39;97087.78;;;7.41;100.00
68226;BME280;55045;49.410;11.030;2024-03-02T08:38:44;97092.16;;;7.57;100.00
68226;BME280;55045;49.410;11.030;2024-03-02T08:41:49;97093.28;;;7.68;100.00
68226;BME280;55045;49.410;11.030;2024-03-02T08:44:52;97101.09;;;7.83;100.00
68226;BME280;55045;49.410;11.030;2024-03-02T08:47:57;97098.88;;;7.92;100.00
68226;BME280;55045;49.410;11.030;2024-03-02T08:51:01;97092.38;;;8.01;100.00
68226;BME280;55045;49.410;11.030;2024-03-02T08:54:10;97083.53;;;8.05;100.00
68226;BME280;55045;49.410;11.030;2024-03-02T08:57:15;97097.53;;;8.17;100.00
68226;BME280;55045;49.410;11.030;2024-03-02T09:00:19;97102.03;;;8.29;100.00
68226;BME280;55045;49.410;11.030;2024-03-02T09:03:24;97096.03;;;8.28;100.00
68226;BME280;55045;49.410;11.030;2024-03-02T09:06:28;97094.69;;;8.37;100.00
68226;BME280;55045;49.410;11.030;2024-03-02T09:09:33;97096.22;;;8.41;100.00
68226;BME280;55045;49.410;11.030;2024-03-02T09:12:38;97097.69;;;8.45;100.00
68226;BME280;55045;49.410;11.030;2024-03-02T09:15:43;97093.06;;;8.66;100.00
68226;BME280;55045;49.410;11.030;2024-03-02T09:18:47;97086.47;;;8.76;100.00
68226;BME280;55045;49.410;11.030;2024-03-02T09:21:51;97089.78;;;8.78;100.00
68226;BME280;55045;49.410;11.030;2024-03-02T09:24:55;97086.25;;;8.95;100.00
68226;BME280;55045;49.410;11.030;2024-03-02T09:28:00;97088.09;;;8.93;100.00
68226;BME280;55045;49.410;11.030;2024-03-02T09:31:05;97075.72;;;8.98;100.00
68226;BME280;55045;49.410;11.030;2024-03-02T09:34:10;97079.91;;;9.15;100.00
68226;BME280;55045;49.410;11.030;2024-03-02T09:37:15;97083.91;;;9.20;100.00
68226;BME280;55045;49.410;11.030;2024-03-02T09:40:21;97078.78;;;9.19;100.00
68226;BME280;55045;49.410;11.030;2024-03-02T09:43:26;97069.94;;;9.23;100.00
68226;BME280;55045;49.410;11.030;2024-03-02T09:46:31;97073.53;;;9.35;100.00
68226;BME280;55045;49.410;11.030;2024-03-02T09:49:35;97070.13;;;9.34;100.00
68226;BME280;55045;49.410;11.030;2024-03-02T09:52:42;97067.25;;;9.39;100.00
68226;BME280;55045;49.410;11.030;2024-03-02T09:55:46;97071.88;;;9.62;100.00
68226;BME280;55045;49.410;11.030;2024-03-02T09:58:52;97073.28;;;9.53;100.00
68226;BME280;55045;49.410;11.030;2024-03-02T10:01:57;97058.84;;;9.64;100.00
68226;BME280;55045;49.410;11.030;2024-03-02T10:05:02;97063.53;;;9.86;100.00
68226;BME280;55045;49.410;11.030;2024-03-02T10:08:07;97064.31;;;10.00;100.00
68226;BME280;55045;49.410;11.030;2024-03-02T10:11:25;97067.63;;;10.17;100.00
68226;BME280;55045;49.410;11.030;2024-03-02T10:14:31;97063.94;;;10.06;100.00
68226;BME280;55045;49.410;11.030;2024-03-02T10:17:35;97069.28;;;10.18;100.00
68226;BME280;55045;49.410;11.030;2024-03-02T10:20:40;97059.50;;;10.23;100.00
68226;BME280;55045;49.410;11.030;2024-03-02T10:23:45;97057.81;;;10.49;100.00
68226;BME280;55045;49.410;11.030;2024-03-02T10:26:49;97053.09;;;10.68;100.00
68226;BME280;55045;49.410;11.030;2024-03-02T10:29:54;97057.47;;;10.67;100.00
68226;BME280;55045;49.410;11.030;2024-03-02T10:34:30;97056.91;;;10.62;100.00
68226;BME280;55045;49.410;11.030;2024-03-02T10:37:35;97051.00;;;10.60;100.00
68226;BME280;55045;49.410;11.030;2024-03-02T10:40:38;97057.69;;;10.77;100.00
68226;BME280;55045;49.410;11.030;2024-03-02T10:43:43;97052.63;;;10.88;100.00
68226;BME280;55045;49.410;11.030;2024-03-02T10:46:49;97049.41;;;10.85;100.00
68226;BME280;55045;49.410;11.030;2024-03-02T10:49:57;97036.72;;;10.80;100.00
68226;BME280;55045;49.410;11.030;2024-03-02T10:53:03;97040.28;;;10.92;100.00
68226;BME280;55045;49.410;11.030;2024-03-02T10:56:09;97042.56;;;10.96;100.00
68226;BME280;55045;49.410;11.030;2024-03-02T10:59:19;97032.41;;;10.93;100.00
68226;BME280;55045;49.410;11.030;2024-03-02T11:02:26;97030.50;;;10.83;100.00
68226;BME280;55045;49.410;11.030;2024-03-02T11:05:36;97028.13;;;10.80;100.00
68226;BME280;55045;49.410;11.030;2024-03-02T11:08:42;97030.22;;;10.87;100.00
68226;BME280;55045;49.410;11.030;2024-03-02T11:11:54;97003.09;;;10.53;100.00
68226;BME280;55045;49.410;11.030;2024-03-02T11:15:00;97017.41;;;10.59;100.00
68226;BME280;55045;49.410;11.030;2024-03-02T11:18:06;97013.28;;;10.69;100.00
68226;BME280;55045;49.410;11.030;2024-03-02T11:21:14;97022.94;;;10.92;100.00
68226;BME280;55045;49.410;11.030;2024-03-02T11:24:33;97019.72;;;10.89;100.00
68226;BME280;55045;49.410;11.030;2024-03-02T11:28:00;97011.22;;;10.87;100.00
68226;BME280;55045;49.410;11.030;2024-03-02T11:31:06;97014.53;;;11.02;100.00
68226;BME280;55045;49.410;11.030;2024-03-02T11:34:28;96971.56;;;10.59;100.00
68226;BME280;55045;49.410;11.030;2024-03-02T11:37:34;97012.50;;;10.94;100.00
68226;BME280;55045;49.410;11.030;2024-03-02T11:40:39;97005.09;;;11.01;100.00
68226;BME280;55045;49.410;11.030;2024-03-02T11:43:43;97005.94;;;11.01;100.00
68226;BME280;55045;49.410;11.030;2024-03-02T11:46:51;97013.81;;;11.12;100.00
68226;BME280;55045;49.410;11.030;2024-03-02T11:49:58;97010.59;;;11.09;100.00
68226;BME280;55045;49.410;11.030;2024-03-02T11:53:05;96999.72;;;11.16;100.00
68226;BME280;55045;49.410;11.030;2024-03-02T11:56:11;96999.19;;;10.99;100.00
68226;BME280;55045;49.410;11.030;2024-03-02T11:59:16;96992.97;;;11.01;100.00
68226;BME280;55045;49.410;11.030;2024-03-02T12:02:20;96998.25;;;10.87;100.00
68226;BME280;55045;49.410;11.030;2024-03-02T12:05:24;96994.53;;;11.04;100.00
68226;BME280;55045;49.410;11.030;2024-03-02T12:08:31;96947.44;;;10.84;100.00
68226;BME280;55045;49.410;11.030;2024-03-02T12:11:35;96980.19;;;10.98;100.00
68226;BME280;55045;49.410;11.030;2024-03-02T12:14:40;96978.31;;;11.00;100.00
68226;BME280;55045;49.410;11.030;2024-03-02T12:17:44;96979.59;;;10.94;100.00
68226;BME280;55045;49.410;11.030;2024-03-02T12:20:50;96978.94;;;10.91;100.00
68226;BME280;55045;49.410;11.030;2024-03-02T12:24:17;96980.09;;;10.87;100.00
68226;BME280;55045;49.410;11.030;2024-03-02T12:27:21;96979.38;;;10.85;100.00
68226;BME280;55045;49.410;11.030;2024-03-02T12:30:27;96974.69;;;10.90;100.00
68226;BME280;55045;49.410;11.030;2024-03-02T12:33:35;96920.66;;;10.58;100.00
68226;BME280;55045;49.410;11.030;2024-03-02T12:36:42;96967.22;;;10.98;100.00
68226;BME280;55045;49.410;11.030;2024-03-02T12:39:47;96959.66;;;10.95;100.00
68226;BME280;55045;49.410;11.030;2024-03-02T12:43:04;96943.91;;;10.85;100.00
68226;BME280;55045;49.410;11.030;2024-03-02T12:46:35;96953.22;;;10.88;100.00
68226;BME280;55045;49.410;11.030;2024-03-02T12:49:40;96951.06;;;10.94;100.00
68226;BME280;55045;49.410;11.030;2024-03-02T12:52:51;96937.53;;;11.02;100.00
68226;BME280;55045;49.410;11.030;2024-03-02T12:55:56;96950.72;;;11.12;100.00
68226;BME280;55045;49.410;11.030;2024-03-02T12:59:01;96930.59;;;11.03;100.00
68226;BME280;55045;49.410;11.030;2024-03-02T13:02:06;96940.34;;;11.24;100.00
68226;BME280;55045;49.410;11.030;2024-03-02T13:05:10;96947.69;;;11.31;100.00
68226;BME280;55045;49.410;11.030;2024-03-02T13:08:14;96936.66;;;11.40;100.00
68226;BME280;55045;49.410;11.030;2024-03-02T13:11:20;96922.31;;;11.47;100.00
68226;BME280;55045;49.410;11.030;2024-03-02T13:14:27;96929.25;;;10.97;100.00
68226;BME280;55045;49.410;11.030;2024-03-02T13:17:34;96878.38;;;11.07;100.00
68226;BME280;55045;49.410;11.030;2024-03-02T13:20:40;96920.66;;;11.46;100.00
68226;BME280;55045;49.410;11.030;2024-03-02T13:23:44;96915.78;;;11.41;100.00
68226;BME280;55045;49.410;11.030;2024-03-02T13:26:49;96914.84;;;11.42;100.00
68226;BME280;55045;49.410;11.030;2024-03-02T13:29:58;96914.06;;;11.53;100.00
68226;BME280;55045;49.410;11.030;2024-03-02T13:33:02;96913.22;;;11.65;100.00
68226;BME280;55045;49.410;11.030;2024-03-02T13:36:07;96900.72;;;11.46;100.00
68226;BME280;55045;49.410;11.030;2024-03-02T13:39:13;96899.84;;;11.59;100.00
68226;BME280;55045;49.410;11.030;2024-03-02T13:42:20;96904.03;;;11.72;100.00
68226;BME280;55045;49.410;11.030;2024-03-02T13:45:24;96896.81;;;11.89;100.00
68226;BME280;55045;49.410;11.030;2024-03-02T13:48:28;96885.22;;;11.81;100.00
68226;BME280;55045;49.410;11.030;2024-03-02T13:51:34;96895.59;;;11.81;100.00
68226;BME280;55045;49.410;11.030;2024-03-02T13:54:38;96891.41;;;11.92;100.00
68226;BME280;55045;49.410;11.030;2024-03-02T13:57:44;96897.41;;;11.92;100.00
68226;BME280;55045;49.410;11.030;2024-03-02T14:00:50;96896.34;;;11.95;100.00
68226;BME280;55045;49.410;11.030;2024-03-02T14:03:55;96899.06;;;12.17;100.00
68226;BME280;55045;49.410;11.030;2024-03-02T14:06:59;96886.72;;;11.97;100.00
68226;BME280;55045;49.410;11.030;2024-03-02T14:10:03;96889.50;;;11.94;100.00
68226;BME280;55045;49.410;11.030;2024-03-02T14:13:09;96885.16;;;12.29;100.00
68226;BME280;55045;49.410;11.030;2024-03-02T14:16:14;96877.94;;;12.33;100.00
68226;BME280;55045;49.410;11.030;2024-03-02T14:19:18;96882.88;;;12.25;100.00
68226;BME280;55045;49.410;11.030;2024-03-02T14:22:22;96881.56;;;12.19;100.00
68226;BME280;55045;49.410;11.030;2024-03-02T14:25:26;96872.84;;;12.20;100.00
68226;BME280;55045;49.410;11.030;2024-03-02T14:28:34;96876.88;;;12.35;100.00
68226;BME280;55045;49.410;11.030;2024-03-02T14:31:52;96875.97;;;12.36;100.00
68226;BME280;55045;49.410;11.030;2024-03-02T14:34:56;96879.03;;;12.42;100.00
68226;BME280;55045;49.410;11.030;2024-03-02T14:38:00;96875.91;;;12.25;100.00
68226;BME280;55045;49.410;11.030;2024-03-02T14:41:04;96864.22;;;12.20;100.00
68226;BME280;55045;49.410;11.030;2024-03-02T14:44:10;96869.31;;;12.32;100.00
68226;BME280;55045;49.410;11.030;2024-03-02T14:47:13;96856.47;;;11.96;100.00
68226;BME280;55045;49.410;11.030;2024-03-02T14:50:17;96857.91;;;12.11;100.00
68226;BME280;55045;49.410;11.030;2024-03-02T14:53:21;96858.81;;;11.88;100.00
68226;BME280;55045;49.410;11.030;2024-03-02T14:56:25;96858.72;;;12.00;100.00
68226;BME280;55045;49.410;11.030;2024-03-02T14:59:30;96848.88;;;11.93;100.00
68226;BME280;55045;49.410;11.030;2024-03-02T15:02:34;96852.91;;;11.86;100.00
68226;BME280;55045;49.410;11.030;2024-03-02T15:05:38;96802.59;;;11.87;100.00
68226;BME280;55045;49.410;11.030;2024-03-02T15:08:43;96841.34;;;12.01;100.00
68226;BME280;55045;49.410;11.030;2024-03-02T15:12:02;96833.84;;;11.61;100.00
68226;BME280;55045;49.410;11.030;2024-03-02T15:15:15;96832.81;;;11.88;100.00
68226;BME280;55045;49.410;11.030;2024-03-02T15:18:37;96844.75;;;11.90;100.00
68226;BME280;55045;49.410;11.030;2024-03-02T15:21:42;96852.97;;;11.60;100.00
68226;BME280;55045;49.410;11.030;2024-03-02T15:24:47;96857.69;;;11.55;100.00
68226;BME280;55045;49.410;11.030;2024-03-02T15:27:52;96854.34;;;11.53;100.00
68226;BME280;55045;49.410;11.030;2024-03-02T15:30:57;96864.13;;;11.49;100.00
68226;BME280;55045;49.410;11.030;2024-03-02T15:34:01;96864.19;;;11.37;100.00
68226;BME280;55045;49.410;11.030;2024-03-02T15:37:05;96863.72;;;11.56;100.00
68226;BME280;55045;49.410;11.030;2024-03-02T15:40:09;96863.53;;;11.46;100.00
68226;BME280;55045;49.410;11.030;2024-03-02T15:43:13;96876.16;;;11.27;100.00
68226;BME280;55045;49.410;11.030;2024-03-02T15:46:19;96870.44;;;11.21;100.00
68226;BME280;55045;49.410;11.030;2024-03-02T15:49:23;96876.69;;;11.19;100.00
68226;BME280;55045;49.410;11.030;2024-03-02T15:52:28;96872.72;;;10.89;100.00
68226;BME280;55045;49.410;11.030;2024-03-02T15:55:32;96870.53;;;10.71;100.00
68226;BME280;55045;49.410;11.030;2024-03-02T15:58:36;96873.88;;;10.60;100.00
68226;BME280;55045;49.410;11.030;2024-03-02T16:01:43;96872.84;;;10.50;100.00
68226;BME280;55045;49.410;11.030;2024-03-02T16:04:47;96869.31;;;10.38;100.00
68226;BME280;55045;49.410;11.030;2024-03-02T16:07:50;96876.16;;;10.26;100.00